Poio, Spain
Current Conditions -  °F | °C
As of 12:00 PM on Thursday 23 Oct 2014 (Local Time) from LEVX Reporting Station
Clear Clear  
Wind Chill: 17°   Ceiling: Unl
Heat Index: 17°   Visibility: 6mi
Dew Point: 12°   Wind: 6mph
Humidity: 72%   Direction: 210°SSW
Pressure: 30.27"   Gusts: NA
Location:  42.44°N, 8.71°W
Report Text: LEVX 231000Z 21005KT CAVOK 17/12 Q1025 NOSIG
Loading
Personal Weather Stations






























Interactive Weather Map
Tropical Storm Tracking
New forecast layout! Learn more

10-Day Weather Forecast

Advertisements
Track Severe Weather on mobile